Time;durP1;ratioP1;P1;durP2;ratioP2;P2;SDS_P1;SDS_P2;PMS_P1;PMS_P2;Temp;Humidity;BMP_temperature;BMP_pressure;BME280_temperature;BME280_humidity;BME280_pressure;Samples;Min_cycle;Max_cycle;Signal;HPM_P1;HPM_P2
2023/02/19 00:02:01;;;;;;;14.57;5.55;;;;;;;8.73;93.23;102039.75;6100196;19;20139;-77
2023/02/19 00:04:08;;;;;;;20.10;5.72;;;;;;;8.74;93.16;102033.63;6101762;19;20010;-77
2023/02/19 00:06:13;;;;;;;12.48;4.93;;;;;;;8.72;93.44;102029.31;6096923;19;20023;-77
2023/02/19 00:08:20;;;;;;;17.25;4.90;;;;;;;8.73;92.93;102031.88;6100069;19;20010;-78
2023/02/19 00:10:26;;;;;;;15.38;4.32;;;;;;;8.77;92.85;102035.34;6101268;19;20412;-78
2023/02/19 00:12:31;;;;;;;20.42;5.05;;;;;;;8.74;92.91;102035.38;6099550;19;20034;-78
2023/02/19 00:14:35;;;;;;;12.70;3.95;;;;;;;8.77;92.53;102036.22;6099287;19;20117;-78
2023/02/19 00:16:42;;;;;;;17.27;5.05;;;;;;;8.76;92.87;102030.97;6103496;19;20018;-84
2023/02/19 00:18:51;;;;;;;19.77;4.68;;;;;;;8.79;92.35;102036.16;6105903;19;20031;-84
2023/02/19 00:20:58;;;;;;;13.82;4.22;;;;;;;8.82;92.19;102035.25;6104450;19;20014;-84
2023/02/19 00:23:03;;;;;;;14.98;4.50;;;;;;;8.82;92.33;102037.88;6105300;19;20011;-85
2023/02/19 00:25:11;;;;;;;21.52;5.30;;;;;;;8.76;92.35;102036.22;6100692;19;20536;-85
2023/02/19 00:27:16;;;;;;;13.52;4.10;;;;;;;8.77;91.66;102033.59;6104342;19;20014;-84
2023/02/19 00:29:23;;;;;;;17.88;4.35;;;;;;;8.76;91.92;102039.69;6105209;19;20007;-84
2023/02/19 00:31:30;;;;;;;13.52;3.88;;;;;;;8.77;92.18;102035.34;6104909;19;20018;-86
2023/02/19 00:33:37;;;;;;;18.33;4.65;;;;;;;8.73;92.32;102042.38;6100864;19;20019;-85
2023/02/19 00:35:43;;;;;;;21.48;5.45;;;;;;;8.75;91.93;102039.75;6104911;19;20047;-86
2023/02/19 00:37:50;;;;;;;16.23;5.90;;;;;;;8.79;91.91;102042.31;6101944;19;20013;-86
2023/02/19 00:39:56;;;;;;;17.42;4.60;;;;;;;8.82;91.75;102043.13;6107476;19;20015;-87
2023/02/19 00:42:04;;;;;;;18.85;4.47;;;;;;;8.79;91.51;102042.31;6107166;19;20482;-86
2023/02/19 00:44:12;;;;;;;13.13;4.10;;;;;;;8.91;91.27;102051.75;6105055;19;20043;-82
2023/02/19 00:46:18;;;;;;;12.48;3.90;;;;;;;8.92;91.34;102047.34;6089993;19;20014;-77
2023/02/19 00:48:23;;;;;;;16.88;4.95;;;;;;;8.94;91.21;102045.59;6104042;19;20029;-87
2023/02/19 00:50:28;;;;;;;13.05;4.20;;;;;;;8.90;91.53;102047.41;6106541;19;20088;-86
2023/02/19 00:52:33;;;;;;;15.15;4.15;;;;;;;8.94;91.08;102054.31;6103112;19;20673;-86
2023/02/19 00:56:58;;;;;;;13.32;3.90;;;;;;;9.05;90.35;102059.41;6104259;19;20720;-85
2023/02/19 00:59:06;;;;;;;10.25;3.58;;;;;;;9.06;90.35;102060.25;6105472;19;20017;-84
2023/02/19 01:01:12;;;;;;;10.63;4.43;;;;;;;9.10;90.64;102065.44;6101055;19;20038;-84
2023/02/19 01:03:21;;;;;;;12.48;3.47;;;;;;;9.16;89.90;102057.50;6097899;19;20462;-86
2023/02/19 01:05:26;;;;;;;16.42;4.32;;;;;;;9.12;90.15;102058.44;6104645;19;20011;-84
2023/02/19 01:07:32;;;;;;;13.50;4.03;;;;;;;9.14;90.16;102069.78;6103158;19;20427;-87
2023/02/19 01:09:37;;;;;;;15.23;4.03;;;;;;;9.19;89.37;102059.22;6100330;19;20486;-84
2023/02/19 01:11:42;;;;;;;13.30;4.15;;;;;;;9.19;89.53;102057.44;6101791;19;20361;-83
2023/02/19 01:13:54;;;;;;;15.30;4.47;;;;;;;9.21;89.56;102060.91;6102805;19;20365;-84
2023/02/19 01:16:08;;;;;;;10.60;3.92;;;;;;;9.25;88.96;102066.97;6100717;19;20071;-85
2023/02/19 01:18:16;;;;;;;12.25;4.68;;;;;;;9.25;88.90;102059.13;6098877;19;20007;-82
2023/02/19 01:20:21;;;;;;;13.13;3.88;;;;;;;9.29;88.63;102058.16;6105745;19;20014;-83
2023/02/19 01:22:26;;;;;;;17.00;4.43;;;;;;;9.28;88.47;102066.06;6102951;19;20014;-83
2023/02/19 01:24:31;;;;;;;12.13;4.05;;;;;;;9.30;88.36;102064.28;6102718;19;20040;-83
2023/02/19 01:26:36;;;;;;;14.10;3.85;;;;;;;9.33;88.28;102072.97;6104979;19;20216;-82
2023/02/19 01:28:41;;;;;;;18.13;3.95;;;;;;;9.38;88.09;102065.03;6106246;19;20090;-81
2023/02/19 01:30:46;;;;;;;11.60;3.88;;;;;;;9.38;87.79;102062.41;6101682;19;20022;-75
2023/02/19 01:32:54;;;;;;;15.73;4.13;;;;;;;9.32;88.46;102063.38;6101959;19;20070;-75
2023/02/19 01:34:59;;;;;;;11.07;3.78;;;;;;;9.30;88.40;102061.69;6102544;19;20407;-76
2023/02/19 01:37:04;;;;;;;12.98;3.72;;;;;;;9.25;88.70;102072.22;6102743;19;20010;-76
2023/02/19 01:39:09;;;;;;;15.65;5.00;;;;;;;9.29;87.90;102066.03;6103533;19;20034;-81
2023/02/19 01:41:18;;;;;;;12.23;3.72;;;;;;;9.33;88.07;102056.38;6100885;19;20010;-82
2023/02/19 01:43:22;;;;;;;18.17;3.45;;;;;;;9.32;88.21;102065.13;6098632;19;20514;-81
2023/02/19 01:45:30;;;;;;;14.00;4.13;;;;;;;9.30;88.29;102067.78;6102557;19;20021;-75
2023/02/19 01:47:35;;;;;;;15.93;3.97;;;;;;;9.32;88.08;102062.50;6102895;19;20344;-76
2023/02/19 01:49:49;;;;;;;14.32;3.30;;;;;;;9.31;88.14;102074.75;6101649;19;20022;-75
2023/02/19 01:51:59;;;;;;;13.93;3.75;;;;;;;9.32;87.42;102062.50;6103753;19;20028;-75
2023/02/19 01:54:07;;;;;;;10.07;3.58;;;;;;;9.29;87.94;102057.28;6100096;19;20309;-82
2023/02/19 01:56:17;;;;;;;17.60;3.85;;;;;;;9.30;88.16;102075.66;6101940;19;20009;-82
2023/02/19 01:58:22;;;;;;;14.52;3.78;;;;;;;9.24;88.32;102075.72;6104808;19;20506;-82
2023/02/19 02:00:28;;;;;;;14.20;4.55;;;;;;;9.31;87.69;102076.50;6105368;19;20086;-75
2023/02/19 02:02:34;;;;;;;13.75;4.32;;;;;;;9.33;87.09;102077.34;6103424;19;20378;-75
2023/02/19 02:04:39;;;;;;;13.50;4.10;;;;;;;9.29;87.79;102081.75;6102012;19;21282;-76
2023/02/19 02:06:51;;;;;;;15.02;3.97;;;;;;;9.30;87.56;102087.91;6109053;19;20365;-82
2023/02/19 02:11:17;;;;;;;10.90;2.97;;;;;;;9.37;87.02;102090.41;6111403;19;20010;-82
2023/02/19 02:13:22;;;;;;;12.73;3.85;;;;;;;9.35;86.93;102083.47;6110734;19;20714;-81
2023/02/19 02:15:36;;;;;;;12.93;3.80;;;;;;;9.32;87.08;102096.59;6111100;19;20007;-82
2023/02/19 02:17:49;;;;;;;10.48;3.40;;;;;;;9.34;86.76;102089.56;6084610;19;20098;-82
2023/02/19 02:20:03;;;;;;;;;;;;;;;9.27;87.09;102091.44;6111262;19;20550;-81
2023/02/19 02:22:14;;;;;;;;;;;;;;;9.27;86.89;102087.91;6106024;19;20453;-82
2023/02/19 02:24:38;;;;;;;10.48;2.92;;;;;;;9.18;87.57;102087.16;6103560;19;19911;-82
2023/02/19 02:27:02;;;;;;;19.02;3.53;;;;;;;9.22;86.95;102096.75;6109040;19;20011;-81
2023/02/19 02:29:49;;;;;;;13.65;3.47;;;;;;;9.22;87.02;102091.50;6109942;19;20027;-82
2023/02/19 02:32:00;;;;;;;15.35;3.35;;;;;;;9.19;87.49;102099.41;6109279;19;20467;-75
2023/02/19 02:34:11;;;;;;;10.88;3.25;;;;;;;9.16;87.29;102091.59;6104595;19;20095;-75
2023/02/19 02:36:20;;;;;;;11.45;3.33;;;;;;;9.27;86.49;102090.53;6100850;19;20359;-76
2023/02/19 02:38:29;;;;;;;13.57;3.75;;;;;;;9.21;87.05;102099.38;6104305;19;20015;-75
2023/02/19 02:40:33;;;;;;;10.05;3.13;;;;;;;9.23;86.97;102097.59;6104755;19;20007;-75
2023/02/19 02:42:41;;;;;;;21.45;5.10;;;;;;;9.21;87.02;102102.00;6079535;19;20013;-74
2023/02/19 02:47:40;;;;;;;20.92;4.18;;;;;;;9.15;87.51;102102.09;6107929;19;20052;-79
2023/02/19 02:50:03;;;;;;;11.95;4.03;;;;;;;9.12;87.58;102105.63;6105165;19;20018;-81
2023/02/19 02:55:01;;;;;;;13.50;3.45;;;;;;;9.08;87.92;102110.94;6108165;19;20014;-80
2023/02/19 02:56:54;;;;;;;11.77;3.88;;;;;;;9.10;87.48;102110.03;6104843;19;20031;-80
2023/02/19 02:59:02;;;;;;;14.65;4.68;;;;;;;9.06;87.82;102121.47;6107786;19;20470;-80
2023/02/19 03:03:35;;;;;;;14.35;3.60;;;;;;;9.13;87.40;102124.84;6108228;19;20561;-82
2023/02/19 03:05:50;;;;;;;16.17;3.45;;;;;;;9.11;87.60;102127.50;6106492;19;20450;-80
2023/02/19 03:07:59;;;;;;;16.40;4.25;;;;;;;9.08;87.72;102130.16;6108359;19;20011;-80
2023/02/19 03:10:10;;;;;;;13.05;3.17;;;;;;;9.08;87.65;102132.78;6104794;19;20002;-82
2023/02/19 03:19:42;;;;;;;14.60;3.95;;;;;;;8.98;89.37;102132.03;6102098;19;20363;-82
2023/02/19 03:21:53;;;;;;;15.10;3.60;;;;;;;8.97;89.30;102137.28;6102505;19;20022;-82
2023/02/19 03:26:21;;;;;;;15.32;3.60;;;;;;;8.99;88.65;102127.66;6099090;19;20482;-75
2023/02/19 03:30:55;;;;;;;19.42;4.15;;;;;;;9.01;87.90;102126.75;6104003;19;20018;-84
2023/02/19 03:33:07;;;;;;;15.10;3.83;;;;;;;9.10;87.03;102135.38;6103380;19;20047;-83
2023/02/19 03:35:19;;;;;;;14.05;3.60;;;;;;;9.05;87.56;102143.31;6104275;19;20014;-76
2023/02/19 03:37:30;;;;;;;14.80;3.22;;;;;;;9.06;87.79;102147.69;6099045;19;20022;-76
2023/02/19 03:39:43;;;;;;;25.38;4.15;;;;;;;9.03;87.73;102152.97;6100691;19;20019;-77
2023/02/19 03:41:57;;;;;;;15.43;3.63;;;;;;;9.07;87.45;102152.03;6097984;19;20014;-78
2023/02/19 03:44:12;;;;;;;12.60;4.18;;;;;;;9.04;87.21;102146.81;6102447;19;20006;-76
2023/02/19 03:46:25;;;;;;;16.52;4.00;;;;;;;9.01;87.81;102165.22;6098612;19;20340;-78
2023/02/19 03:48:36;;;;;;;15.20;4.07;;;;;;;8.99;87.71;102161.75;6098688;19;21398;-78
2023/02/19 03:50:51;;;;;;;16.73;4.35;;;;;;;9.02;87.24;102164.31;6101235;19;20078;-76
2023/02/19 03:53:05;;;;;;;17.52;4.20;;;;;;;8.98;88.10;102173.13;6102847;19;20427;-76
2023/02/19 03:55:16;;;;;;;15.13;3.58;;;;;;;8.97;87.92;102168.75;6106477;19;20022;-77
2023/02/19 03:57:27;;;;;;;10.40;3.42;;;;;;;8.99;87.45;102165.22;6104252;19;20011;-75
2023/02/19 03:59:38;;;;;;;10.80;3.47;;;;;;;8.94;87.58;102177.53;6103077;19;20538;-76
2023/02/19 04:01:46;;;;;;;12.52;4.20;;;;;;;8.93;88.19;102174.94;6103412;19;20039;-76
2023/02/19 04:03:58;;;;;;;10.35;3.08;;;;;;;8.82;88.53;102168.94;6100959;19;20098;-75
2023/02/19 04:06:13;;;;;;;11.85;3.38;;;;;;;8.82;88.97;102171.56;6101709;19;20533;-77
2023/02/19 04:08:21;;;;;;;13.35;3.95;;;;;;;8.81;89.67;102175.09;6094449;19;20014;-76
2023/02/19 04:10:28;;;;;;;12.93;3.90;;;;;;;8.77;89.86;102179.50;6098938;19;20027;-75
2023/02/19 04:12:33;;;;;;;10.88;3.55;;;;;;;8.73;90.09;102183.03;6101452;19;20471;-75
2023/02/19 04:14:43;;;;;;;12.98;3.25;;;;;;;8.71;90.57;102179.56;6098422;19;20014;-74
2023/02/19 04:16:54;;;;;;;17.30;4.13;;;;;;;8.65;90.83;102184.88;6100693;19;20031;-76
2023/02/19 04:19:04;;;;;;;13.40;3.38;;;;;;;8.66;91.24;102182.25;6095825;19;20021;-76
2023/02/19 04:21:12;;;;;;;16.52;3.40;;;;;;;8.60;91.47;102198.00;6096949;19;20010;-75
2023/02/19 04:23:22;;;;;;;12.07;3.40;;;;;;;8.57;91.65;102192.81;6099175;19;20073;-75
2023/02/19 04:25:28;;;;;;;12.68;3.50;;;;;;;8.51;92.03;102193.75;6099113;19;20376;-73
2023/02/19 04:27:34;;;;;;;11.90;4.07;;;;;;;8.52;92.05;102198.09;6098266;19;20013;-73
2023/02/19 04:29:39;;;;;;;15.48;3.50;;;;;;;8.50;91.95;102197.22;6098627;19;20014;-73
2023/02/19 04:31:46;;;;;;;16.23;3.63;;;;;;;8.49;91.88;102211.22;6097099;19;20069;-74
2023/02/19 04:33:52;;;;;;;17.00;4.82;;;;;;;8.50;91.56;102219.94;6098478;19;20007;-74
2023/02/19 04:35:57;;;;;;;15.07;3.67;;;;;;;8.55;91.43;102213.78;6098094;19;20110;-74
2023/02/19 04:38:05;;;;;;;18.75;4.47;;;;;;;8.54;91.17;102213.81;6098640;19;20006;-74
2023/02/19 04:40:11;;;;;;;14.15;3.70;;;;;;;8.57;91.15;102224.25;6093714;19;20011;-75
2023/02/19 04:42:16;;;;;;;20.80;4.65;;;;;;;8.56;91.04;102222.53;6098392;19;20010;-74
2023/02/19 04:44:22;;;;;;;14.32;3.80;;;;;;;8.61;90.51;102238.19;6100249;19;20486;-74
2023/02/19 04:46:27;;;;;;;20.85;4.28;;;;;;;8.58;90.76;102244.31;6096916;19;20082;-75
2023/02/19 04:48:32;;;;;;;20.45;3.83;;;;;;;8.65;89.82;102240.75;6100976;19;20007;-77
2023/02/19 04:50:40;;;;;;;15.27;3.80;;;;;;;8.64;89.86;102251.28;6099169;19;20014;-76
2023/02/19 04:52:45;;;;;;;16.80;3.83;;;;;;;8.62;90.09;102240.78;6100087;19;20006;-81
2023/02/19 04:54:53;;;;;;;19.05;4.18;;;;;;;8.63;90.10;102245.16;6100720;19;20451;-78
2023/02/19 04:57:01;;;;;;;19.42;4.40;;;;;;;8.60;90.09;102244.31;6099395;19;20006;-78
2023/02/19 04:59:06;;;;;;;13.57;3.85;;;;;;;8.65;89.62;102247.75;6099406;19;20011;-80
2023/02/19 05:01:11;;;;;;;14.07;4.13;;;;;;;8.65;89.35;102250.38;6100269;19;20020;-81
2023/02/19 05:03:20;;;;;;;12.52;3.92;;;;;;;8.60;89.68;102260.91;6098915;19;20042;-81
2023/02/19 05:05:25;;;;;;;12.27;3.00;;;;;;;8.67;88.90;102267.81;6099592;19;20379;-82
2023/02/19 05:07:30;;;;;;;16.10;4.18;;;;;;;8.72;88.63;102270.41;6103404;19;20021;-84
2023/02/19 05:09:35;;;;;;;9.35;3.53;;;;;;;8.68;88.98;102273.94;6099334;19;20014;-83
2023/02/19 05:11:43;;;;;;;19.88;3.55;;;;;;;8.65;89.14;102282.69;6102195;19;20018;-83
2023/02/19 05:13:48;;;;;;;15.10;4.38;;;;;;;8.67;88.36;102288.78;6099204;19;20420;-84
2023/02/19 05:15:58;;;;;;;16.63;3.45;;;;;;;8.63;88.98;102284.44;6102355;19;20274;-84
2023/02/19 05:18:03;;;;;;;19.85;4.45;;;;;;;8.59;89.53;102290.63;6102277;19;20022;-84
2023/02/19 05:20:13;;;;;;;7.32;3.72;;;;;;;8.58;89.46;102296.72;6095839;19;20042;-80
2023/02/19 05:22:18;;;;;;;14.32;4.57;;;;;;;8.57;89.58;102305.47;6101477;19;20010;-75
2023/02/19 05:24:26;;;;;;;13.82;3.90;;;;;;;8.52;90.19;102308.13;6096508;19;20027;-75
2023/02/19 05:26:31;;;;;;;11.48;4.18;;;;;;;8.50;90.94;102306.41;6097183;19;20033;-78
2023/02/19 05:28:40;;;;;;;12.57;4.30;;;;;;;8.45;90.99;102303.84;6092170;19;20078;-76
2023/02/19 05:30:45;;;;;;;7.70;3.33;;;;;;;8.43;91.29;102307.34;6097969;19;20010;-80
2023/02/19 05:32:50;;;;;;;10.00;3.97;;;;;;;8.43;91.27;102304.75;6097654;19;20010;-80
2023/02/19 05:34:55;;;;;;;8.82;3.75;;;;;;;8.45;91.24;102302.94;6104825;19;20003;-79
2023/02/19 05:37:00;;;;;;;11.55;4.40;;;;;;;8.41;91.39;102309.09;6102348;19;20344;-79
2023/02/19 05:39:07;;;;;;;10.73;3.95;;;;;;;8.44;91.35;102301.22;6101316;19;20041;-79
2023/02/19 05:41:13;;;;;;;15.10;3.88;;;;;;;8.41;91.41;102303.88;6103832;19;20526;-80
2023/02/19 05:43:19;;;;;;;10.25;4.50;;;;;;;8.35;92.37;102300.38;6103825;19;20011;-79
2023/02/19 05:45:27;;;;;;;11.32;4.28;;;;;;;8.33;92.30;102289.03;6101681;19;20018;-80
2023/02/19 05:47:32;;;;;;;12.20;3.75;;;;;;;8.35;92.25;102303.00;6102883;19;20014;-80
2023/02/19 05:49:37;;;;;;;14.05;4.38;;;;;;;8.29;92.90;102300.44;6103025;19;20283;-80
2023/02/19 05:51:42;;;;;;;13.80;4.80;;;;;;;8.25;93.18;102296.09;6099605;19;20015;-80
2023/02/19 05:53:48;;;;;;;11.90;3.92;;;;;;;8.23;93.54;102307.47;6101430;19;20126;-81
2023/02/19 05:55:52;;;;;;;10.73;4.05;;;;;;;8.24;93.18;102302.22;6103173;19;20353;-80
2023/02/19 05:57:58;;;;;;;11.88;4.30;;;;;;;8.21;92.92;102304.84;6101197;19;20087;-81
2023/02/19 06:00:03;;;;;;;16.27;4.85;;;;;;;8.21;92.88;102310.06;6100645;19;20081;-80
2023/02/19 06:02:11;;;;;;;16.65;5.35;;;;;;;8.23;92.95;102315.31;6098014;19;20018;-78
2023/02/19 06:04:18;;;;;;;12.27;3.88;;;;;;;8.20;93.28;102318.81;6096052;19;20078;-80
2023/02/19 06:06:23;;;;;;;12.18;4.25;;;;;;;8.20;93.46;102315.34;6098464;19;20046;-79
2023/02/19 06:08:29;;;;;;;12.40;3.97;;;;;;;8.19;93.20;102322.34;6100875;19;20479;-80
2023/02/19 06:10:35;;;;;;;19.42;4.70;;;;;;;8.19;93.20;102327.56;6099547;19;20022;-79
2023/02/19 06:12:40;;;;;;;15.32;4.63;;;;;;;8.19;93.25;102321.44;6078075;19;20106;-75
2023/02/19 06:14:45;;;;;;;14.43;4.72;;;;;;;8.19;93.42;102332.81;6099637;19;20015;-76
2023/02/19 06:16:50;;;;;;;11.73;4.18;;;;;;;8.16;93.45;102332.81;6095975;19;20062;-74
2023/02/19 06:18:59;;;;;;;12.60;4.00;;;;;;;8.13;93.84;102328.47;6099574;19;20033;-75
2023/02/19 06:21:04;;;;;;;11.77;4.57;;;;;;;8.12;94.02;102336.34;6098727;19;20041;-80
2023/02/19 06:23:09;;;;;;;15.40;4.65;;;;;;;8.13;93.77;102332.81;6098277;19;20015;-80
2023/02/19 06:25:14;;;;;;;16.30;6.40;;;;;;;8.14;93.46;102339.81;6100559;19;20011;-79
2023/02/19 06:27:19;;;;;;;16.30;4.80;;;;;;;8.16;93.46;102339.78;6096663;19;20028;-80
2023/02/19 06:29:25;;;;;;;9.90;4.20;;;;;;;8.11;93.55;102345.09;6101173;19;20006;-80
2023/02/19 06:31:30;;;;;;;12.70;3.75;;;;;;;8.13;93.56;102344.16;6100657;19;20144;-81
2023/02/19 06:33:35;;;;;;;12.85;4.68;;;;;;;8.13;93.29;102346.78;6101007;19;20014;-80
2023/02/19 06:35:43;;;;;;;13.40;4.18;;;;;;;8.15;93.53;102352.03;6101727;19;20013;-81
2023/02/19 06:37:50;;;;;;;10.88;4.32;;;;;;;8.16;92.81;102347.66;6100132;19;20014;-83
2023/02/19 06:39:57;;;;;;;17.35;4.45;;;;;;;8.07;93.21;102346.84;6102177;19;20010;-82
2023/02/19 06:42:02;;;;;;;14.90;4.93;;;;;;;8.12;93.05;102344.19;6099963;19;20011;-82
2023/02/19 06:44:10;;;;;;;18.27;4.80;;;;;;;8.12;93.08;102352.06;6099225;19;20633;-82
2023/02/19 06:46:15;;;;;;;16.38;4.40;;;;;;;8.17;92.25;102359.88;6096362;19;20039;-83
2023/02/19 06:48:20;;;;;;;14.93;4.53;;;;;;;8.20;92.22;102359.88;6101026;19;20031;-84
2023/02/19 06:50:26;;;;;;;11.50;4.00;;;;;;;8.16;92.47;102356.38;6101150;19;20018;-84
2023/02/19 06:52:33;;;;;;;13.40;4.28;;;;;;;8.14;92.75;102352.91;6104068;19;20064;-84
2023/02/19 06:54:38;;;;;;;10.23;3.70;;;;;;;8.17;93.02;102359.88;6106837;19;20011;-83
2023/02/19 06:56:47;;;;;;;13.60;4.75;;;;;;;8.19;92.43;102366.84;6110211;19;20418;-84
2023/02/19 06:58:52;;;;;;;17.23;4.80;;;;;;;8.18;92.55;102370.34;6105248;19;20013;-83
2023/02/19 07:00:59;;;;;;;11.70;4.00;;;;;;;8.15;92.79;102367.75;6108581;19;20011;-83
2023/02/19 07:03:04;;;;;;;13.93;4.68;;;;;;;8.13;93.01;102370.34;6104425;19;20030;-82
2023/02/19 07:05:09;;;;;;;9.77;3.75;;;;;;;8.12;93.08;102370.38;6108394;19;20079;-82
2023/02/19 07:07:15;;;;;;;11.77;4.03;;;;;;;8.12;93.09;102380.84;6109272;19;20014;-82
2023/02/19 07:09:24;;;;;;;20.98;4.38;;;;;;;8.15;93.15;102388.69;6110663;19;20014;-83
2023/02/19 07:11:32;;;;;;;17.23;4.05;;;;;;;8.12;93.02;102396.56;6108755;19;20042;-83
2023/02/19 07:13:36;;;;;;;14.13;5.13;;;;;;;8.11;93.38;102389.59;6085958;19;20070;-84
2023/02/19 07:15:50;;;;;;;16.58;4.60;;;;;;;8.12;93.06;102400.03;6109238;19;20341;-77
2023/02/19 07:17:56;;;;;;;16.38;4.25;;;;;;;8.11;93.12;102403.56;6101720;19;20131;-77
2023/02/19 07:20:08;;;;;;;16.83;5.25;;;;;;;8.09;93.70;102407.06;6104515;19;20121;-77
2023/02/19 07:22:16;;;;;;;13.50;4.25;;;;;;;8.07;93.68;102407.06;6098838;19;20014;-76
2023/02/19 07:24:24;;;;;;;21.10;6.18;;;;;;;8.04;93.99;102424.53;6105051;19;20318;-75
2023/02/19 07:26:29;;;;;;;17.15;5.70;;;;;;;8.05;93.66;102423.63;6102028;19;20106;-77
2023/02/19 07:28:33;;;;;;;13.88;5.15;;;;;;;8.05;94.03;102434.13;6102789;19;20035;-74
2023/02/19 07:30:38;;;;;;;15.40;4.63;;;;;;;8.01;94.64;102430.66;6103412;19;20458;-74
2023/02/19 07:32:44;;;;;;;14.25;4.78;;;;;;;8.05;94.50;102441.97;6103356;19;20006;-74
2023/02/19 07:34:52;;;;;;;16.83;6.22;;;;;;;7.97;94.97;102436.75;6103017;19;20382;-75
2023/02/19 07:36:57;;;;;;;18.80;5.20;;;;;;;7.96;94.79;102442.88;6101629;19;20482;-73
2023/02/19 07:39:02;;;;;;;18.15;5.30;;;;;;;7.97;94.44;102447.22;6102646;19;20085;-74
2023/02/19 07:41:10;;;;;;;17.63;4.88;;;;;;;7.95;94.72;102454.22;6101111;19;20010;-74
2023/02/19 07:43:16;;;;;;;14.75;4.47;;;;;;;7.93;94.90;102456.00;6102027;19;20093;-75
2023/02/19 07:45:21;;;;;;;13.73;5.05;;;;;;;7.94;94.80;102451.63;6103793;19;20013;-74
2023/02/19 07:47:31;;;;;;;14.77;4.63;;;;;;;7.93;95.32;102463.84;6103695;19;20056;-75
2023/02/19 07:49:36;;;;;;;13.85;4.95;;;;;;;7.91;95.53;102476.94;6103999;19;20018;-75
2023/02/19 07:51:42;;;;;;;12.25;4.65;;;;;;;7.90;95.60;102477.81;6104702;19;20019;-75
2023/02/19 07:53:51;;;;;;;12.30;5.20;;;;;;;7.87;95.40;102483.06;6100930;19;20017;-75
2023/02/19 07:56:01;;;;;;;12.65;4.90;;;;;;;7.88;95.20;102490.03;6106440;19;20013;-75
2023/02/19 07:58:09;;;;;;;12.43;4.38;;;;;;;7.88;95.54;102491.78;6105218;19;20022;-74
2023/02/19 08:00:15;;;;;;;13.25;4.30;;;;;;;7.91;95.48;102494.38;6101424;19;20388;-74
2023/02/19 08:04:47;;;;;;;13.32;4.45;;;;;;;7.91;95.17;102505.72;6104619;19;20093;-80
2023/02/19 08:06:54;;;;;;;12.68;4.72;;;;;;;7.90;94.65;102501.38;6103943;19;20018;-78
2023/02/19 08:09:02;;;;;;;20.23;5.05;;;;;;;7.95;94.53;102501.34;6101574;19;20097;-79
2023/02/19 08:13:29;;;;;;;17.48;4.88;;;;;;;7.95;93.36;102511.81;6107018;19;20240;-80
2023/02/19 08:15:35;;;;;;;15.35;4.38;;;;;;;7.96;93.15;102513.56;6106331;19;20014;-78
2023/02/19 08:17:40;;;;;;;14.63;5.63;;;;;;;7.95;93.29;102509.19;6103822;19;20038;-79
2023/02/19 08:19:45;;;;;;;11.32;4.32;;;;;;;7.99;93.37;102508.31;6105572;19;20128;-78
2023/02/19 08:21:50;;;;;;;15.95;4.25;;;;;;;8.00;92.31;102511.78;6104070;19;20741;-79
2023/02/19 08:23:55;;;;;;;19.77;4.65;;;;;;;8.00;92.63;102511.78;6104562;19;20019;-76
2023/02/19 08:26:02;;;;;;;12.63;5.38;;;;;;;8.01;92.22;102519.66;6103745;19;20091;-78
2023/02/19 08:28:08;;;;;;;18.13;4.10;;;;;;;8.05;91.93;102513.53;6105050;19;20042;-77
2023/02/19 08:30:16;;;;;;;13.23;4.15;;;;;;;8.01;91.93;102518.78;6100701;19;20014;-77
2023/02/19 08:32:20;;;;;;;18.40;3.97;;;;;;;8.00;92.34;102520.50;6104652;19;20018;-77
2023/02/19 08:34:25;;;;;;;13.77;3.60;;;;;;;8.01;91.75;102524.03;6103998;19;20017;-77
2023/02/19 08:36:30;;;;;;;13.65;4.07;;;;;;;8.01;92.10;102521.41;6105646;19;20091;-77
2023/02/19 08:38:38;;;;;;;14.73;4.75;;;;;;;8.03;91.54;102527.50;6106490;19;20593;-79
2023/02/19 08:40:47;;;;;;;17.25;5.10;;;;;;;8.06;91.93;102520.53;6103891;19;20013;-79
2023/02/19 08:42:53;;;;;;;14.20;3.92;;;;;;;8.12;91.92;102517.88;6105221;19;20721;-79
2023/02/19 08:44:58;;;;;;;15.35;4.30;;;;;;;8.11;91.80;102524.00;6104302;19;20014;-79
2023/02/19 08:47:06;;;;;;;14.32;4.45;;;;;;;8.13;91.63;102530.06;6104344;19;20545;-77
2023/02/19 08:49:11;;;;;;;12.60;4.18;;;;;;;8.12;91.45;102530.97;6105450;19;20090;-77
2023/02/19 08:51:16;;;;;;;14.93;5.45;;;;;;;8.12;91.26;102527.47;6104056;19;20034;-78
2023/02/19 08:53:21;;;;;;;17.58;4.95;;;;;;;8.15;91.01;102530.09;6101224;19;20632;-78
2023/02/19 08:55:26;;;;;;;12.52;4.28;;;;;;;8.17;91.17;102530.09;6104426;19;20728;-77
2023/02/19 08:57:32;;;;;;;13.57;4.00;;;;;;;8.17;91.09;102527.47;6103081;19;20380;-78
2023/02/19 08:59:40;;;;;;;13.68;3.95;;;;;;;8.19;90.70;102521.34;6102722;19;20018;-86
2023/02/19 09:01:45;;;;;;;15.27;5.18;;;;;;;8.12;90.81;102515.25;6105835;19;20031;-83
2023/02/19 09:03:52;;;;;;;15.35;4.32;;;;;;;8.12;90.08;102509.16;6103357;19;20070;-74
2023/02/19 09:06:00;;;;;;;10.80;3.60;;;;;;;8.16;90.59;102516.09;6100971;19;20176;-81
2023/02/19 09:08:06;;;;;;;16.33;3.90;;;;;;;8.22;90.52;102521.34;6106127;19;20118;-81
2023/02/19 09:10:13;;;;;;;15.70;3.83;;;;;;;8.23;90.68;102524.81;6097553;19;20010;-79
2023/02/19 09:12:18;;;;;;;15.60;4.75;;;;;;;8.22;90.09;102530.94;6102892;19;20014;-80
2023/02/19 09:14:23;;;;;;;15.85;4.13;;;;;;;8.28;89.72;102537.03;6097645;19;20011;-81
2023/02/19 09:16:28;;;;;;;12.40;4.07;;;;;;;8.31;90.76;102534.38;6102363;19;20014;-81
2023/02/19 09:18:35;;;;;;;13.20;3.95;;;;;;;8.35;90.09;102549.22;6105346;19;20015;-81
2023/02/19 09:20:42;;;;;;;14.43;3.67;;;;;;;8.27;89.24;102545.75;6105615;19;20474;-81
2023/02/19 09:22:52;;;;;;;14.20;3.85;;;;;;;8.25;90.04;102547.50;6105314;19;20007;-80
2023/02/19 09:24:57;;;;;;;11.60;3.53;;;;;;;8.30;89.47;102548.38;6104757;19;20037;-81
2023/02/19 09:27:02;;;;;;;7.25;2.95;;;;;;;8.34;88.74;102563.19;6102758;19;20459;-81
2023/02/19 09:29:09;;;;;;;15.85;4.40;;;;;;;8.54;88.61;102575.38;6083143;19;20613;-82
2023/02/19 09:31:17;;;;;;;11.35;3.25;;;;;;;8.63;87.15;102574.47;6102797;19;20006;-75
2023/02/19 09:33:22;;;;;;;7.85;2.85;;;;;;;8.84;87.73;102576.97;6102142;19;20007;-75
2023/02/19 09:35:27;;;;;;;12.18;3.38;;;;;;;8.83;87.30;102582.25;6104958;19;20021;-81
2023/02/19 09:37:35;;;;;;;10.60;3.80;;;;;;;8.83;86.36;102585.72;6104226;19;20021;-81
2023/02/19 09:39:43;;;;;;;9.00;3.05;;;;;;;8.75;86.54;102595.38;6103935;19;20011;-80
2023/02/19 09:41:50;;;;;;;11.38;3.15;;;;;;;8.80;86.54;102601.47;6103815;19;20546;-81
2023/02/19 09:43:55;;;;;;;9.05;3.33;;;;;;;8.81;86.24;102595.34;6103292;19;20017;-81
2023/02/19 09:46:05;;;;;;;13.02;3.13;;;;;;;8.79;86.51;102603.22;6104487;19;20010;-82
2023/02/19 09:48:12;;;;;;;11.00;3.10;;;;;;;8.84;86.56;102610.19;6103783;19;20363;-82
2023/02/19 09:50:23;;;;;;;12.13;2.85;;;;;;;8.86;85.64;102608.44;6098015;19;20121;-81
2023/02/19 09:52:33;;;;;;;12.40;3.45;;;;;;;8.80;84.54;102625.06;6103155;19;20411;-81
2023/02/19 09:54:42;;;;;;;9.80;2.90;;;;;;;8.71;85.59;102638.19;6105437;19;20396;-83
2023/02/19 09:56:50;;;;;;;10.50;2.83;;;;;;;8.51;84.35;102633.03;6102934;19;20021;-81
2023/02/19 09:58:59;;;;;;;7.50;3.60;;;;;;;8.48;84.49;102638.31;6102124;19;20015;-81
2023/02/19 10:01:07;;;;;;;8.90;2.60;;;;;;;8.53;85.40;102639.13;6104528;19;20051;-83
2023/02/19 10:03:24;;;;;;;7.00;2.75;;;;;;;8.48;84.50;102635.69;6104128;19;20010;-82
2023/02/19 10:05:29;;;;;;;9.45;3.50;;;;;;;8.53;84.92;102636.50;6105215;19;20034;-85
2023/02/19 10:07:40;;;;;;;5.20;2.53;;;;;;;8.43;84.78;102645.31;6104933;19;20031;-81
2023/02/19 10:09:54;;;;;;;6.60;2.22;;;;;;;8.36;84.67;102640.03;6099804;19;20361;-76
2023/02/19 10:12:01;;;;;;;4.80;1.98;;;;;;;8.31;84.57;102647.00;6101585;19;20051;-75
2023/02/19 10:14:10;;;;;;;6.68;2.55;;;;;;;8.39;84.20;102654.00;6101113;19;20014;-75
2023/02/19 10:16:21;;;;;;;5.28;2.10;;;;;;;8.29;84.13;102654.03;6098542;19;20043;-76
2023/02/19 10:18:30;;;;;;;4.30;2.22;;;;;;;8.31;83.85;102641.78;6101080;19;20027;-75
2023/02/19 10:20:35;;;;;;;4.70;2.60;;;;;;;8.33;85.02;102650.50;6099495;19;20003;-74
2023/02/19 10:22:41;;;;;;;6.43;2.58;;;;;;;8.40;85.21;102655.75;6100958;19;20017;-75
2023/02/19 10:24:53;;;;;;;5.25;2.13;;;;;;;8.30;84.70;102671.47;6100741;19;20065;-75